Time;durP1;ratioP1;P1;durP2;ratioP2;P2;SDS_P1;SDS_P2;PMS_P1;PMS_P2;Temp;Humidity;BMP_temperature;BMP_pressure;BME280_temperature;BME280_humidity;BME280_pressure;Samples;Min_cycle;Max_cycle;Signal;HPM_P1;HPM_P2
2024/04/05 00:00:45;;;;;;;1.40;0.90;;;;;;;;;;5075407;28;20185;-75
2024/04/05 00:03:10;;;;;;;3.05;0.75;;;;;;;;;;5075710;28;20048;-76
2024/04/05 00:05:36;;;;;;;1.75;0.88;;;;;;;;;;5075569;28;20048;-76
2024/04/05 00:08:01;;;;;;;3.85;0.98;;;;;;;;;;5075248;28;20052;-76
2024/04/05 00:10:27;;;;;;;4.85;1.08;;;;;;;;;;5058553;28;20051;-75
2024/04/05 00:12:52;;;;;;;2.67;0.88;;;;;;;;;;5058432;28;20048;-76
2024/04/05 00:15:18;;;;;;;4.57;1.50;;;;;;;;;;5074887;28;20044;-76
2024/04/05 00:17:44;;;;;;;6.05;1.73;;;;;;;;;;5058758;28;20055;-76
2024/04/05 00:20:10;;;;;;;8.63;1.70;;;;;;;;;;5058431;28;20523;-76
2024/04/05 00:22:35;;;;;;;2.75;1.30;;;;;;;;;;5058561;28;20138;-76
2024/04/05 00:25:01;;;;;;;3.17;0.90;;;;;;;;;;5058494;28;20529;-76
2024/04/05 00:27:27;;;;;;;2.50;1.05;;;;;;;;;;5074989;28;20537;-76
2024/04/05 00:29:52;;;;;;;4.75;1.55;;;;;;;;;;5074873;28;20455;-76
2024/04/05 00:32:18;;;;;;;2.35;0.85;;;;;;;;;;5058138;28;20091;-76
2024/04/05 00:34:44;;;;;;;3.25;1.20;;;;;;;;;;5074577;28;20084;-76
2024/04/05 00:37:09;;;;;;;2.10;1.23;;;;;;;;;;5058115;28;20113;-76
2024/04/05 00:39:35;;;;;;;1.77;1.30;;;;;;;;;;5058295;28;20055;-76
2024/04/05 00:42:00;;;;;;;2.05;0.93;;;;;;;;;;5058248;28;20056;-76
2024/04/05 00:44:26;;;;;;;3.40;1.05;;;;;;;;;;5058186;28;20418;-76
2024/04/05 00:46:51;;;;;;;4.22;0.90;;;;;;;;;;5056070;28;20430;-75
2024/04/05 00:49:17;;;;;;;4.43;1.13;;;;;;;;;;5057812;28;20144;-76
2024/04/05 00:51:42;;;;;;;4.00;1.52;;;;;;;;;;5040958;28;20048;-76
2024/04/05 00:54:08;;;;;;;1.50;0.77;;;;;;;;;;5057814;28;20109;-76
2024/04/05 00:56:33;;;;;;;2.60;1.05;;;;;;;;;;5057156;28;20056;-76
2024/04/05 00:58:59;;;;;;;1.30;0.70;;;;;;;;;;5057456;28;20505;-76
2024/04/05 01:01:25;;;;;;;2.40;1.10;;;;;;;;;;5057718;28;20105;-76
2024/04/05 01:03:50;;;;;;;2.03;0.93;;;;;;;;;;5074429;28;20052;-76
2024/04/05 01:06:16;;;;;;;2.63;0.90;;;;;;;;;;5074102;28;20467;-76
2024/04/05 01:08:42;;;;;;;3.25;1.10;;;;;;;;;;5057343;28;20497;-76
2024/04/05 01:11:07;;;;;;;2.20;1.15;;;;;;;;;;5057616;28;20048;-76
2024/04/05 01:13:33;;;;;;;3.03;1.10;;;;;;;;;;5057719;28;20044;-76
2024/04/05 01:16:00;;;;;;;3.53;1.05;;;;;;;;;;5056357;28;20534;-76
2024/04/05 01:18:26;;;;;;;3.08;1.20;;;;;;;;;;5062797;28;20059;-75
2024/04/05 01:20:52;;;;;;;1.80;1.13;;;;;;;;;;5076608;28;20044;-76
2024/04/05 01:23:17;;;;;;;2.75;1.10;;;;;;;;;;5041039;28;20048;-76
2024/04/05 01:25:43;;;;;;;6.57;2.20;;;;;;;;;;5057264;28;20063;-76
2024/04/05 01:28:12;;;;;;;3.47;1.52;;;;;;;;;;5073761;28;20106;-76
2024/04/05 01:30:38;;;;;;;4.47;1.30;;;;;;;;;;5057348;28;20082;-76
2024/04/05 01:33:03;;;;;;;3.67;1.10;;;;;;;;;;5073805;28;20052;-76
2024/04/05 01:35:29;;;;;;;5.70;1.30;;;;;;;;;;5073678;28;20083;-76
2024/04/05 01:37:55;;;;;;;4.30;1.08;;;;;;;;;;5045622;28;20079;-76
2024/04/05 01:40:21;;;;;;;3.92;1.08;;;;;;;;;;5057572;28;20476;-76
2024/04/05 01:42:46;;;;;;;5.03;1.10;;;;;;;;;;5056920;28;20056;-76
2024/04/05 01:45:12;;;;;;;5.80;1.10;;;;;;;;;;5073610;28;20055;-76
2024/04/05 01:47:37;;;;;;;4.65;1.00;;;;;;;;;;5073651;28;20605;-76
2024/04/05 01:50:03;;;;;;;3.72;1.40;;;;;;;;;;5073505;28;20066;-76
2024/04/05 01:52:29;;;;;;;1.60;0.90;;;;;;;;;;5056828;28;20530;-76
2024/04/05 01:54:55;;;;;;;3.47;1.05;;;;;;;;;;5073361;28;20048;-76
2024/04/05 01:57:20;;;;;;;4.10;0.90;;;;;;;;;;5056964;28;20138;-75
2024/04/05 01:59:49;;;;;;;2.58;1.02;;;;;;;;;;5073507;28;20445;-76
2024/04/05 02:02:15;;;;;;;1.45;0.90;;;;;;;;;;5073581;28;20060;-76
2024/04/05 02:04:41;;;;;;;3.95;1.30;;;;;;;;;;5040053;28;20063;-76
2024/04/05 02:07:06;;;;;;;3.17;1.00;;;;;;;;;;5075084;28;20083;-76
2024/04/05 02:09:32;;;;;;;3.78;0.90;;;;;;;;;;5077403;28;20134;-76
2024/04/05 02:11:58;;;;;;;4.13;0.98;;;;;;;;;;5077349;28;20048;-76
2024/04/05 02:14:25;;;;;;;3.47;1.35;;;;;;;;;;5060689;28;20044;-76
2024/04/05 02:16:50;;;;;;;3.45;1.27;;;;;;;;;;5061497;28;20418;-74
2024/04/05 02:19:16;;;;;;;2.15;0.90;;;;;;;;;;5082010;28;20097;-75
2024/04/05 02:21:42;;;;;;;3.28;0.82;;;;;;;;;;5065994;28;20101;-76
2024/04/05 02:24:07;;;;;;;2.15;0.80;;;;;;;;;;5083301;28;20060;-76
2024/04/05 02:26:33;;;;;;;3.63;1.02;;;;;;;;;;5084060;28;20095;-76
2024/04/05 02:28:59;;;;;;;2.78;0.95;;;;;;;;;;5103730;28;20040;-74
2024/04/05 02:31:24;;;;;;;3.03;1.20;;;;;;;;;;5104279;28;20043;-73
2024/04/05 02:33:50;;;;;;;2.80;1.30;;;;;;;;;;5088838;28;20044;-76
2024/04/05 02:36:15;;;;;;;4.03;1.15;;;;;;;;;;5066006;28;20044;-75
2024/04/05 02:38:41;;;;;;;2.13;1.15;;;;;;;;;;5078527;28;20048;-76
2024/04/05 02:41:07;;;;;;;1.65;0.88;;;;;;;;;;5077923;28;20052;-76
2024/04/05 02:43:33;;;;;;;3.13;1.17;;;;;;;;;;5077585;28;20126;-75
2024/04/05 02:45:59;;;;;;;3.67;0.90;;;;;;;;;;5060296;28;20055;-75
2024/04/05 02:48:25;;;;;;;1.23;0.80;;;;;;;;;;5043630;28;20596;-76
2024/04/05 02:50:50;;;;;;;4.68;1.15;;;;;;;;;;5077000;28;20333;-76
2024/04/05 02:53:16;;;;;;;3.88;1.23;;;;;;;;;;5076939;28;20422;-76
2024/04/05 02:55:41;;;;;;;2.65;1.10;;;;;;;;;;5060060;28;20044;-76
2024/04/05 02:58:07;;;;;;;2.55;1.02;;;;;;;;;;5076734;28;20425;-76
2024/04/05 03:00:35;;;;;;;3.65;1.13;;;;;;;;;;5077115;28;20048;-76
2024/04/05 03:03:01;;;;;;;1.30;1.17;;;;;;;;;;5061085;28;20067;-76
2024/04/05 03:05:26;;;;;;;3.45;1.50;;;;;;;;;;5076577;28;20429;-76
2024/04/05 03:07:52;;;;;;;5.47;1.52;;;;;;;;;;5076709;28;20056;-76
2024/04/05 03:10:17;;;;;;;2.45;1.55;;;;;;;;;;5076259;28;20524;-76
2024/04/05 03:12:43;;;;;;;4.70;1.48;;;;;;;;;;5076186;28;20056;-76
2024/04/05 03:15:09;;;;;;;3.28;1.05;;;;;;;;;;5076228;28;20060;-76
2024/04/05 03:17:35;;;;;;;3.58;0.90;;;;;;;;;;5059717;28;20059;-76
2024/04/05 03:20:00;;;;;;;4.05;1.08;;;;;;;;;;5058741;28;20048;-76
2024/04/05 03:22:27;;;;;;;2.22;1.00;;;;;;;;;;5076186;28;20079;-76
2024/04/05 03:24:52;;;;;;;3.47;1.52;;;;;;;;;;5059327;28;20059;-76
2024/04/05 03:27:18;;;;;;;4.05;1.60;;;;;;;;;;5075833;28;20048;-75
2024/04/05 03:29:43;;;;;;;3.17;1.60;;;;;;;;;;5059237;28;20143;-76
2024/04/05 03:32:09;;;;;;;5.15;1.65;;;;;;;;;;5059307;28;20059;-76
2024/04/05 03:34:35;;;;;;;3.08;1.13;;;;;;;;;;5059420;28;20048;-76
2024/04/05 03:37:00;;;;;;;4.05;1.50;;;;;;;;;;5061983;28;20052;-75
2024/04/05 03:39:26;;;;;;;2.00;1.17;;;;;;;;;;5061402;28;20418;-76
2024/04/05 03:41:52;;;;;;;6.05;1.45;;;;;;;;;;5059292;28;20048;-76
2024/04/05 03:44:17;;;;;;;4.18;1.33;;;;;;;;;;5059352;28;20051;-76
2024/04/05 03:46:45;;;;;;;5.18;1.20;;;;;;;;;;5059045;28;20460;-76
2024/04/05 03:49:11;;;;;;;3.75;1.30;;;;;;;;;;5058977;28;20074;-76
2024/04/05 03:51:36;;;;;;;3.58;1.38;;;;;;;;;;5058935;28;20052;-76
2024/04/05 03:54:03;;;;;;;2.92;0.98;;;;;;;;;;5058934;28;20048;-76
2024/04/05 03:56:28;;;;;;;3.00;0.95;;;;;;;;;;5058439;28;20048;-76
2024/04/05 03:58:54;;;;;;;3.65;1.10;;;;;;;;;;5058774;28;20048;-76
2024/04/05 04:01:19;;;;;;;3.60;1.10;;;;;;;;;;5058829;28;20060;-76
2024/04/05 04:03:45;;;;;;;1.98;1.15;;;;;;;;;;5058767;28;20106;-76
2024/04/05 04:06:11;;;;;;;3.67;1.10;;;;;;;;;;5058566;28;20105;-75
2024/04/05 04:08:36;;;;;;;1.90;1.08;;;;;;;;;;5055619;28;20068;-76
2024/04/05 04:11:05;;;;;;;2.08;1.10;;;;;;;;;;5041340;28;20052;-76
2024/04/05 04:13:31;;;;;;;3.38;1.40;;;;;;;;;;5058561;28;20044;-76
2024/04/05 04:15:57;;;;;;;3.10;1.13;;;;;;;;;;5058354;28;20056;-76
2024/04/05 04:18:22;;;;;;;3.00;1.55;;;;;;;;;;5075096;28;20553;-75
2024/04/05 04:20:49;;;;;;;2.83;1.00;;;;;;;;;;5058641;28;20084;-76
2024/04/05 04:23:14;;;;;;;4.25;1.23;;;;;;;;;;5058590;28;20075;-76
2024/04/05 04:25:40;;;;;;;2.55;1.20;;;;;;;;;;5058275;28;20501;-76
2024/04/05 04:28:07;;;;;;;2.60;0.90;;;;;;;;;;5058573;28;20048;-76
2024/04/05 04:30:33;;;;;;;4.50;1.70;;;;;;;;;;5057352;28;20094;-75
2024/04/05 04:32:58;;;;;;;4.50;1.88;;;;;;;;;;5074684;28;20048;-76
2024/04/05 04:35:24;;;;;;;2.28;1.20;;;;;;;;;;5057977;28;20040;-76
2024/04/05 04:37:49;;;;;;;3.28;1.48;;;;;;;;;;5058331;28;20055;-75
2024/04/05 04:40:15;;;;;;;2.53;1.40;;;;;;;;;;5057809;28;20048;-75
2024/04/05 04:42:40;;;;;;;3.28;1.17;;;;;;;;;;5074891;28;20051;-76
2024/04/05 04:45:06;;;;;;;4.75;1.92;;;;;;;;;;5074795;28;20536;-76
2024/04/05 04:47:32;;;;;;;2.78;1.25;;;;;;;;;;5075675;28;20048;-75
2024/04/05 04:49:58;;;;;;;2.38;1.50;;;;;;;;;;5057967;28;20417;-76
2024/04/05 04:52:24;;;;;;;2.53;1.25;;;;;;;;;;5074544;28;20055;-75
2024/04/05 04:54:50;;;;;;;2.92;1.20;;;;;;;;;;5057620;28;20572;-76
2024/04/05 04:57:16;;;;;;;4.85;1.70;;;;;;;;;;5074431;28;20049;-76
2024/04/05 04:59:42;;;;;;;4.95;3.47;;;;;;;;;;5057564;28;20428;-75
2024/04/05 05:02:08;;;;;;;6.85;4.78;;;;;;;;;;5057642;28;20048;-75
2024/04/05 05:04:34;;;;;;;7.95;4.20;;;;;;;;;;5057922;28;20051;-75
2024/04/05 05:07:01;;;;;;;6.82;5.07;;;;;;;;;;5074182;28;20055;-76
2024/04/05 05:09:26;;;;;;;4.75;3.15;;;;;;;;;;5074227;28;20056;-76
2024/04/05 05:11:52;;;;;;;3.90;2.38;;;;;;;;;;5057609;28;20463;-76
2024/04/05 05:14:17;;;;;;;3.25;1.70;;;;;;;;;;5057561;28;20089;-74
2024/04/05 05:16:43;;;;;;;4.32;1.40;;;;;;;;;;5057180;28;20052;-76
2024/04/05 05:19:09;;;;;;;3.13;1.55;;;;;;;;;;5057576;28;20231;-76
2024/04/05 05:21:35;;;;;;;4.53;1.60;;;;;;;;;;5057377;28;20055;-76
2024/04/05 05:24:00;;;;;;;3.15;1.35;;;;;;;;;;5057070;28;20064;-76
2024/04/05 05:26:26;;;;;;;2.75;1.80;;;;;;;;;;5057029;28;20052;-76
2024/04/05 05:28:51;;;;;;;3.03;1.48;;;;;;;;;;5057109;28;20055;-76
2024/04/05 05:31:17;;;;;;;5.97;1.90;;;;;;;;;;5057091;28;20073;-76
2024/04/05 05:33:43;;;;;;;2.90;1.60;;;;;;;;;;5073827;28;20048;-76
2024/04/05 05:36:08;;;;;;;3.28;1.13;;;;;;;;;;5057283;28;20074;-76
2024/04/05 05:38:34;;;;;;;3.20;1.60;;;;;;;;;;5077369;28;20052;-75
2024/04/05 05:40:59;;;;;;;5.55;1.70;;;;;;;;;;5058200;28;20630;-76
2024/04/05 05:43:25;;;;;;;3.13;1.23;;;;;;;;;;5073426;28;20048;-76
2024/04/05 05:45:50;;;;;;;4.78;1.50;;;;;;;;;;5062632;28;20067;-75
2024/04/05 05:48:16;;;;;;;4.35;1.55;;;;;;;;;;5079691;28;20075;-75
2024/04/05 05:50:42;;;;;;;3.58;1.75;;;;;;;;;;5068895;28;20052;-74
2024/04/05 05:53:08;;;;;;;4.07;2.53;;;;;;;;;;5061091;28;20051;-76
2024/04/05 05:55:34;;;;;;;3.28;1.67;;;;;;;;;;5057902;28;20494;-76
2024/04/05 05:57:59;;;;;;;5.30;1.52;;;;;;;;;;5057704;28;20454;-76
2024/04/05 06:00:25;;;;;;;6.50;1.55;;;;;;;;;;5057719;28;20044;-76
2024/04/05 06:02:51;;;;;;;1.52;1.40;;;;;;;;;;5057349;28;20102;-76
2024/04/05 06:05:19;;;;;;;3.65;2.03;;;;;;;;;;5057424;28;20114;-76
2024/04/05 06:07:45;;;;;;;6.30;1.70;;;;;;;;;;5057306;28;20506;-77
2024/04/05 06:10:11;;;;;;;7.07;2.08;;;;;;;;;;5057505;28;20131;-76
2024/04/05 06:12:39;;;;;;;6.57;1.48;;;;;;;;;;5056907;28;20129;-77
2024/04/05 06:15:04;;;;;;;3.20;1.50;;;;;;;;;;5057303;28;20073;-77
2024/04/05 06:17:34;;;;;;;2.85;1.73;;;;;;;;;;5056555;28;20521;-76
2024/04/05 06:19:59;;;;;;;5.28;1.65;;;;;;;;;;5056880;28;20048;-76
2024/04/05 06:22:25;;;;;;;5.65;1.75;;;;;;;;;;5056519;28;20557;-76
2024/04/05 06:24:51;;;;;;;4.75;1.70;;;;;;;;;;5056547;28;20182;-76
2024/04/05 06:27:17;;;;;;;3.25;1.55;;;;;;;;;;5073290;28;20060;-76
2024/04/05 06:29:53;;;;;;;4.25;1.77;;;;;;;;;;5056721;28;20051;-76
2024/04/05 06:32:19;;;;;;;2.78;1.25;;;;;;;;;;5056613;28;20051;-76
2024/04/05 06:34:45;;;;;;;3.75;1.40;;;;;;;;;;5056667;28;20130;-77
2024/04/05 06:37:11;;;;;;;5.07;1.88;;;;;;;;;;5073718;28;20471;-76
2024/04/05 06:39:37;;;;;;;4.90;1.70;;;;;;;;;;5073759;28;20051;-74
2024/04/05 06:42:02;;;;;;;2.38;1.52;;;;;;;;;;5056475;28;20052;-74
2024/04/05 06:44:31;;;;;;;1.95;1.30;;;;;;;;;;5056460;28;20052;-74
2024/04/05 06:47:15;;;;;;;2.47;1.25;;;;;;;;;;5056111;28;20056;-73
2024/04/05 06:49:41;;;;;;;3.28;1.33;;;;;;;;;;5056110;28;20044;-74
2024/04/05 06:52:07;;;;;;;4.05;1.48;;;;;;;;;;5056319;28;20048;-75
2024/04/05 06:54:33;;;;;;;2.92;1.45;;;;;;;;;;5075101;28;20480;-75
2024/04/05 06:56:59;;;;;;;4.05;1.67;;;;;;;;;;5076508;28;20052;-75
2024/04/05 06:59:24;;;;;;;3.08;1.30;;;;;;;;;;5060181;28;20059;-75
2024/04/05 07:01:51;;;;;;;3.55;1.42;;;;;;;;;;5059905;28;20056;-75
2024/04/05 07:04:16;;;;;;;5.07;1.02;;;;;;;;;;5060221;28;20048;-75
2024/04/05 07:06:43;;;;;;;4.47;1.30;;;;;;;;;;5059536;28;20137;-75
2024/04/05 07:09:08;;;;;;;1.65;1.20;;;;;;;;;;5059868;28;20048;-75
2024/04/05 07:11:37;;;;;;;2.05;1.20;;;;;;;;;;5059951;28;20055;-75
2024/04/05 07:14:02;;;;;;;5.78;2.50;;;;;;;;;;5076532;28;20071;-75
2024/04/05 07:16:28;;;;;;;6.43;1.63;;;;;;;;;;5059660;28;20052;-75
2024/04/05 07:18:53;;;;;;;2.28;0.80;;;;;;;;;;5059683;28;20079;-75
2024/04/05 07:21:19;;;;;;;3.17;0.80;;;;;;;;;;5059867;28;20483;-75
2024/04/05 07:23:45;;;;;;;2.85;0.90;;;;;;;;;;5059557;28;20509;-75
2024/04/05 07:26:10;;;;;;;2.85;1.08;;;;;;;;;;5059182;28;20113;-75
2024/04/05 07:28:36;;;;;;;3.78;1.15;;;;;;;;;;5042965;28;20056;-75
2024/04/05 07:31:03;;;;;;;2.92;1.27;;;;;;;;;;5059133;28;20510;-75
2024/04/05 07:33:29;;;;;;;1.90;0.90;;;;;;;;;;5059693;28;20052;-75
2024/04/05 07:35:56;;;;;;;4.80;1.00;;;;;;;;;;5059002;28;20044;-75
2024/04/05 07:38:22;;;;;;;3.40;0.90;;;;;;;;;;5059123;28;20097;-75
2024/04/05 07:40:48;;;;;;;2.22;0.73;;;;;;;;;;5075873;28;20048;-75
2024/04/05 07:43:14;;;;;;;2.00;0.90;;;;;;;;;;5059516;28;20055;-75
2024/04/05 07:45:39;;;;;;;3.42;1.20;;;;;;;;;;5058873;28;20127;-75
2024/04/05 07:48:05;;;;;;;2.17;0.82;;;;;;;;;;5059337;28;20060;-75
2024/04/05 07:50:31;;;;;;;3.20;0.85;;;;;;;;;;5058939;28;20528;-75
2024/04/05 07:52:56;;;;;;;2.67;1.05;;;;;;;;;;5059049;28;20080;-75
2024/04/05 07:55:22;;;;;;;1.83;0.80;;;;;;;;;;5059069;28;20085;-74
2024/04/05 07:57:47;;;;;;;1.77;0.95;;;;;;;;;;5059099;28;20059;-75
2024/04/05 08:00:16;;;;;;;3.25;1.30;;;;;;;;;;5058726;28;20071;-75
2024/04/05 08:02:46;;;;;;;9.23;5.07;;;;;;;;;;5059041;28;20106;-75
2024/04/05 08:05:11;;;;;;;4.90;3.38;;;;;;;;;;5075016;28;20056;-75
2024/04/05 08:07:37;;;;;;;9.65;5.63;;;;;;;;;;5075713;28;20087;-75
2024/04/05 08:10:03;;;;;;;4.57;2.40;;;;;;;;;;5058570;28;20123;-75
2024/04/05 08:12:28;;;;;;;8.57;4.82;;;;;;;;;;5075151;28;20048;-74
2024/04/05 08:14:54;;;;;;;5.93;3.83;;;;;;;;;;5058405;28;20074;-75
2024/04/05 08:17:19;;;;;;;2.42;1.05;;;;;;;;;;5075131;28;20052;-75
2024/04/05 08:19:45;;;;;;;3.80;1.52;;;;;;;;;;5058281;28;20088;-75
2024/04/05 08:22:11;;;;;;;2.92;2.03;;;;;;;;;;5058796;28;20056;-75
2024/04/05 08:24:36;;;;;;;3.55;1.75;;;;;;;;;;5058661;28;20098;-75
2024/04/05 08:27:02;;;;;;;3.25;1.10;;;;;;;;;;5058323;28;20044;-76
2024/04/05 08:29:28;;;;;;;5.43;1.50;;;;;;;;;;5058127;28;20056;-75
2024/04/05 08:31:53;;;;;;;4.50;1.92;;;;;;;;;;5058376;28;20105;-75
2024/04/05 08:34:22;;;;;;;1.05;0.80;;;;;;;;;;5074955;28;20505;-75
2024/04/05 08:36:48;;;;;;;5.15;1.40;;;;;;;;;;5057969;28;20497;-76
2024/04/05 08:39:17;;;;;;;2.40;1.00;;;;;;;;;;5041650;28;20051;-75
2024/04/05 08:41:43;;;;;;;1.90;0.60;;;;;;;;;;5057963;28;20052;-75
2024/04/05 08:44:11;;;;;;;3.00;0.93;;;;;;;;;;5074856;28;20056;-75
2024/04/05 08:46:37;;;;;;;3.10;0.90;;;;;;;;;;5058012;28;20063;-75
2024/04/05 08:49:03;;;;;;;2.00;0.80;;;;;;;;;;5074567;28;20056;-75
2024/04/05 08:51:28;;;;;;;3.40;1.33;;;;;;;;;;5057731;28;20051;-76
2024/04/05 08:53:54;;;;;;;2.45;0.90;;;;;;;;;;5058077;28;20048;-75
2024/04/05 08:56:19;;;;;;;2.35;0.70;;;;;;;;;;5057761;28;20502;-76
2024/04/05 08:58:45;;;;;;;2.15;0.60;;;;;;;;;;5057834;28;20165;-75
2024/04/05 09:01:11;;;;;;;2.20;1.00;;;;;;;;;;5057671;28;20052;-75
2024/04/05 09:03:36;;;;;;;7.22;0.85;;;;;;;;;;5057857;28;20048;-75
2024/04/05 09:06:04;;;;;;;0.90;0.50;;;;;;;;;;5058783;28;20418;-75
2024/04/05 09:08:29;;;;;;;3.03;0.90;;;;;;;;;;5061770;28;20097;-75
2024/04/05 09:10:55;;;;;;;1.40;0.73;;;;;;;;;;5059463;28;20502;-74
2024/04/05 09:13:21;;;;;;;5.85;1.23;;;;;;;;;;5058201;28;20101;-75
2024/04/05 09:15:50;;;;;;;4.03;0.93;;;;;;;;;;5073711;28;20052;-75
2024/04/05 09:18:25;;;;;;;2.00;0.70;;;;;;;;;;5073986;28;20055;-75
2024/04/05 09:20:51;;;;;;;3.38;0.88;;;;;;;;;;5074069;28;20052;-75
2024/04/05 09:23:16;;;;;;;1.90;0.70;;;;;;;;;;5057413;28;20058;-75
2024/04/05 09:25:43;;;;;;;1.40;0.73;;;;;;;;;;5057090;28;20082;-75
2024/04/05 09:28:20;;;;;;;2.75;0.63;;;;;;;;;;5057536;28;20058;-75
2024/04/05 09:30:49;;;;;;;1.95;0.70;;;;;;;;;;5065979;28;20458;-75
2024/04/05 09:33:18;;;;;;;3.35;0.93;;;;;;;;;;5062574;28;20051;-75
2024/04/05 09:35:44;;;;;;;1.92;0.70;;;;;;;;;;5076932;28;20521;-75
2024/04/05 09:38:10;;;;;;;4.03;0.82;;;;;;;;;;5059798;28;20060;-75
2024/04/05 09:40:38;;;;;;;2.30;1.10;;;;;;;;;;5057687;28;20101;-75
2024/04/05 09:43:04;;;;;;;1.83;0.85;;;;;;;;;;5057493;28;20063;-76
2024/04/05 09:45:33;;;;;;;2.33;0.80;;;;;;;;;;5056967;28;20064;-76
2024/04/05 09:47:58;;;;;;;0.98;0.57;;;;;;;;;;5056903;28;20052;-75
2024/04/05 09:50:24;;;;;;;1.38;0.70;;;;;;;;;;5073464;28;20066;-74
2024/04/05 09:52:51;;;;;;;2.63;0.75;;;;;;;;;;5057747;28;20048;-75
2024/04/05 09:55:17;;;;;;;4.03;0.80;;;;;;;;;;5058704;28;20051;-76
2024/04/05 09:57:45;;;;;;;3.47;0.90;;;;;;;;;;5056879;28;20044;-75
2024/04/05 10:00:14;;;;;;;2.33;0.82;;;;;;;;;;5053294;28;20040;-75
2024/04/05 10:02:41;;;;;;;1.27;0.68;;;;;;;;;;5040482;28;20060;-75
2024/04/05 10:05:07;;;;;;;2.40;0.57;;;;;;;;;;5073560;28;20043;-75
2024/04/05 10:07:33;;;;;;;2.22;0.80;;;;;;;;;;5056835;28;20056;-75
2024/04/05 10:10:07;;;;;;;2.15;1.17;;;;;;;;;;5056604;28;20150;-76
2024/04/05 10:12:33;;;;;;;1.52;1.05;;;;;;;;;;5073326;28;20571;-76
2024/04/05 10:14:58;;;;;;;1.80;0.70;;;;;;;;;;5056840;28;20052;-75
2024/04/05 10:17:27;;;;;;;3.05;0.70;;;;;;;;;;5056632;28;20040;-75
2024/04/05 10:20:06;;;;;;;2.40;0.75;;;;;;;;;;5057003;28;20051;-75
2024/04/05 10:22:32;;;;;;;0.80;0.70;;;;;;;;;;5073824;28;20048;-76
2024/04/05 10:24:58;;;;;;;2.63;0.70;;;;;;;;;;5073478;28;20101;-76
2024/04/05 10:27:24;;;;;;;2.42;0.70;;;;;;;;;;5056772;28;20452;-76
2024/04/05 10:29:57;;;;;;;1.85;0.75;;;;;;;;;;5077006;28;20056;-76
2024/04/05 10:32:23;;;;;;;1.58;1.00;;;;;;;;;;5043845;28;20044;-76
2024/04/05 10:34:48;;;;;;;2.88;0.77;;;;;;;;;;5060373;28;20151;-75
2024/04/05 10:37:16;;;;;;;2.30;0.75;;;;;;;;;;5060639;28;20140;-76
2024/04/05 10:39:42;;;;;;;4.47;1.10;;;;;;;;;;5060315;28;20048;-76
2024/04/05 10:42:07;;;;;;;3.90;0.80;;;;;;;;;;5077173;28;20063;-76
2024/04/05 10:44:33;;;;;;;1.50;0.93;;;;;;;;;;5060472;28;20099;-75
2024/04/05 10:47:01;;;;;;;2.53;0.60;;;;;;;;;;5060069;28;20052;-75
2024/04/05 10:49:27;;;;;;;1.85;0.90;;;;;;;;;;5076884;28;20421;-75
2024/04/05 10:51:59;;;;;;;1.02;0.60;;;;;;;;;;5060178;28;20055;-75
2024/04/05 10:54:24;;;;;;;4.20;1.38;;;;;;;;;;5060752;28;20553;-76
2024/04/05 10:56:50;;;;;;;2.15;0.70;;;;;;;;;;5060165;28;20350;-76
2024/04/05 10:59:19;;;;;;;2.38;0.50;;;;;;;;;;5060553;28;20048;-76
2024/04/05 11:01:45;;;;;;;1.58;0.40;;;;;;;;;;5060068;28;20509;-75
2024/04/05 11:04:10;;;;;;;1.85;0.60;;;;;;;;;;5060339;28;20433;-75
2024/04/05 11:06:36;;;;;;;3.28;0.57;;;;;;;;;;5060291;28;20052;-75
2024/04/05 11:09:02;;;;;;;2.35;0.50;;;;;;;;;;5060399;28;20056;-75
2024/04/05 11:11:28;;;;;;;1.73;0.47;;;;;;;;;;5077583;28;20055;-75
2024/04/05 11:14:03;;;;;;;3.22;0.77;;;;;;;;;;5060246;28;20391;-75
2024/04/05 11:16:30;;;;;;;2.08;0.70;;;;;;;;;;5076849;28;20299;-75
2024/04/05 11:18:55;;;;;;;2.65;0.60;;;;;;;;;;5076737;28;20044;-75
2024/04/05 11:21:21;;;;;;;1.85;0.50;;;;;;;;;;5060438;28;20059;-75
2024/04/05 11:23:51;;;;;;;0.93;0.50;;;;;;;;;;5076583;28;20052;-75
2024/04/05 11:26:21;;;;;;;1.02;0.70;;;;;;;;;;5076650;28;20222;-76
2024/04/05 11:28:47;;;;;;;2.08;0.60;;;;;;;;;;5060026;28;20048;-76
2024/04/05 11:31:16;;;;;;;3.47;1.83;;;;;;;;;;5059954;28;20048;-75
2024/04/05 11:33:41;;;;;;;1.48;0.80;;;;;;;;;;5059752;28;20044;-74
2024/04/05 11:36:08;;;;;;;1.13;0.50;;;;;;;;;;5059554;28;20112;-76
2024/04/05 11:38:33;;;;;;;0.85;0.50;;;;;;;;;;5060139;28;20048;-75
2024/04/05 11:40:59;;;;;;;1.13;0.47;;;;;;;;;;5075660;28;20553;-75
2024/04/05 11:43:26;;;;;;;0.85;0.60;;;;;;;;;;5059170;28;20052;-75
2024/04/05 11:45:52;;;;;;;0.93;0.40;;;;;;;;;;5059120;28;20052;-75
2024/04/05 11:48:17;;;;;;;1.50;0.50;;;;;;;;;;5059384;28;20574;-75
2024/04/05 11:50:43;;;;;;;2.05;1.02;;;;;;;;;;5058832;28;20052;-76
2024/04/05 11:53:08;;;;;;;2.60;0.40;;;;;;;;;;5059026;28;20059;-75
2024/04/05 11:55:34;;;;;;;2.30;0.60;;;;;;;;;;5059086;28;20410;-75
2024/04/05 11:57:59;;;;;;;1.17;0.85;;;;;;;;;;5042669;28;20048;-75
2024/04/05 12:00:25;;;;;;;1.88;0.60;;;;;;;;;;5055446;28;20048;-75
2024/04/05 12:02:50;;;;;;;1.45;0.47;;;;;;;;;;5054641;28;20056;-75
2024/04/05 12:05:17;;;;;;;2.85;0.65;;;;;;;;;;5059113;28;20052;-75
2024/04/05 12:07:42;;;;;;;2.92;0.70;;;;;;;;;;5076420;28;20067;-75
2024/04/05 12:10:09;;;;;;;4.68;1.20;;;;;;;;;;5059979;28;20044;-74
2024/04/05 12:12:35;;;;;;;5.35;1.60;;;;;;;;;;5065885;28;20078;-74
2024/04/05 12:15:00;;;;;;;1.17;0.80;;;;;;;;;;5073216;28;20056;-75
2024/04/05 12:17:26;;;;;;;0.95;0.60;;;;;;;;;;5075727;28;20052;-74
2024/04/05 12:19:52;;;;;;;2.45;0.65;;;;;;;;;;5059855;28;20582;-75
2024/04/05 12:22:17;;;;;;;1.85;0.50;;;;;;;;;;5060271;28;20118;-75
2024/04/05 12:24:46;;;;;;;2.40;0.93;;;;;;;;;;5076470;28;20481;-75
2024/04/05 12:27:12;;;;;;;1.50;0.55;;;;;;;;;;5059536;28;20437;-75
2024/04/05 12:29:37;;;;;;;3.17;1.02;;;;;;;;;;5076094;28;20056;-75
2024/04/05 12:32:03;;;;;;;3.63;1.13;;;;;;;;;;5059626;28;20414;-75
2024/04/05 12:34:29;;;;;;;2.03;0.80;;;;;;;;;;5059479;28;20109;-75
2024/04/05 12:36:54;;;;;;;1.30;0.63;;;;;;;;;;5059027;28;20052;-75
2024/04/05 12:39:28;;;;;;;1.42;0.68;;;;;;;;;;5059691;28;20056;-75
2024/04/05 12:41:54;;;;;;;2.00;0.47;;;;;;;;;;5059650;28;20056;-75
2024/04/05 12:44:20;;;;;;;1.83;0.57;;;;;;;;;;5058893;28;20483;-75
2024/04/05 12:46:45;;;;;;;1.20;0.60;;;;;;;;;;5075424;28;20048;-75
2024/04/05 12:49:11;;;;;;;1.52;0.60;;;;;;;;;;5059286;28;20512;-75
2024/04/05 12:51:37;;;;;;;0.75;0.50;;;;;;;;;;5075317;28;20109;-74
2024/04/05 12:54:02;;;;;;;6.80;0.75;;;;;;;;;;5059492;28;20097;-75
2024/04/05 12:56:29;;;;;;;1.23;0.60;;;;;;;;;;5059054;28;20105;-75
2024/04/05 12:58:54;;;;;;;1.25;0.50;;;;;;;;;;5058958;28;20052;-75
2024/04/05 13:01:20;;;;;;;1.67;0.35;;;;;;;;;;5058911;28;20056;-75
2024/04/05 13:03:45;;;;;;;1.05;0.40;;;;;;;;;;5058654;28;20105;-75
2024/04/05 13:06:14;;;;;;;0.65;0.50;;;;;;;;;;5058630;28;20052;-75
2024/04/05 13:08:41;;;;;;;1.27;0.60;;;;;;;;;;5058723;28;20047;-75
2024/04/05 13:11:06;;;;;;;2.40;0.52;;;;;;;;;;5067006;28;20055;-76
2024/04/05 13:13:32;;;;;;;2.03;0.70;;;;;;;;;;5058681;28;20058;-76
2024/04/05 13:15:58;;;;;;;8.07;1.75;;;;;;;;;;5075194;28;20557;-75
2024/04/05 13:18:24;;;;;;;1.67;0.80;;;;;;;;;;5075589;28;20063;-75
2024/04/05 13:20:50;;;;;;;0.68;0.55;;;;;;;;;;5058548;28;20502;-75
2024/04/05 13:23:15;;;;;;;1.00;0.60;;;;;;;;;;5058559;28;20056;-75
2024/04/05 13:25:42;;;;;;;0.70;0.40;;;;;;;;;;5058656;28;20116;-75
2024/04/05 13:28:08;;;;;;;0.82;0.50;;;;;;;;;;5058700;28;20062;-75
2024/04/05 13:30:34;;;;;;;1.35;0.60;;;;;;;;;;5058814;28;20048;-75
2024/04/05 13:32:59;;;;;;;1.02;0.70;;;;;;;;;;5058491;28;20070;-75
2024/04/05 13:35:29;;;;;;;0.70;0.40;;;;;;;;;;5058663;28;20494;-76
2024/04/05 13:37:55;;;;;;;1.95;0.47;;;;;;;;;;5058429;28;20055;-75
2024/04/05 13:40:22;;;;;;;1.02;0.60;;;;;;;;;;5050489;28;20051;-76
2024/04/05 13:42:48;;;;;;;3.05;0.60;;;;;;;;;;5058698;28;20052;-75
2024/04/05 13:45:13;;;;;;;2.83;0.55;;;;;;;;;;5058438;28;20063;-74
2024/04/05 13:47:39;;;;;;;1.30;0.50;;;;;;;;;;5058124;28;20101;-75
2024/04/05 13:50:05;;;;;;;1.92;0.57;;;;;;;;;;5058198;28;20060;-75
2024/04/05 13:52:31;;;;;;;0.68;0.60;;;;;;;;;;5058181;28;20048;-75
2024/04/05 13:54:57;;;;;;;2.30;0.50;;;;;;;;;;5058057;28;20048;-75
2024/04/05 13:57:22;;;;;;;1.40;0.52;;;;;;;;;;5058100;28;20052;-75
2024/04/05 13:59:48;;;;;;;2.63;0.60;;;;;;;;;;5058474;28;20078;-75
2024/04/05 14:02:14;;;;;;;2.42;0.70;;;;;;;;;;5075003;28;20094;-76
2024/04/05 14:04:40;;;;;;;2.65;0.60;;;;;;;;;;5058324;28;20059;-75
2024/04/05 14:07:07;;;;;;;3.22;0.60;;;;;;;;;;5074742;28;20055;-74
2024/04/05 14:09:34;;;;;;;0.93;0.60;;;;;;;;;;5058233;28;20056;-75
2024/04/05 14:12:00;;;;;;;1.00;0.70;;;;;;;;;;5058142;28;20052;-75
2024/04/05 14:14:26;;;;;;;1.63;0.47;;;;;;;;;;5057962;28;20056;-75
2024/04/05 14:16:51;;;;;;;1.48;0.57;;;;;;;;;;5057936;28;20106;-75
2024/04/05 14:19:17;;;;;;;1.40;0.70;;;;;;;;;;5057605;28;20062;-75
2024/04/05 14:21:42;;;;;;;1.30;0.52;;;;;;;;;;5057998;28;20091;-75
2024/04/05 14:24:08;;;;;;;2.90;1.38;;;;;;;;;;5057914;28;20113;-75
2024/04/05 14:26:34;;;;;;;2.47;0.57;;;;;;;;;;5057359;28;20063;-75
2024/04/05 14:28:59;;;;;;;2.25;0.70;;;;;;;;;;5058082;28;20127;-75
2024/04/05 14:31:25;;;;;;;3.00;0.57;;;;;;;;;;5057977;28;20563;-75
2024/04/05 14:33:51;;;;;;;0.90;0.75;;;;;;;;;;5060085;28;20051;-75
2024/04/05 14:36:17;;;;;;;0.90;0.65;;;;;;;;;;5058760;28;20055;-75